createdAt,value
2022-10-11T00:00:21.875Z,98635.88
2022-10-11T00:02:49.857Z,98625.06
2022-10-11T00:05:18.213Z,98635.38
2022-10-11T00:07:46.297Z,98630.03
2022-10-11T00:10:14.247Z,98625.78
2022-10-11T00:12:42.541Z,98621.50
2022-10-11T00:15:14.917Z,98633.84
2022-10-11T00:17:42.947Z,98637.16
2022-10-11T00:20:13.083Z,98625.44
2022-10-11T00:22:42.613Z,98636.00
2022-10-11T00:25:12.480Z,98639.25
2022-10-11T00:27:41.105Z,98633.81
2022-10-11T00:30:12.648Z,98637.34
2022-10-11T00:32:41.099Z,98627.41
2022-10-11T00:35:09.662Z,98631.28
2022-10-11T00:37:39.673Z,98630.13
2022-10-11T00:40:10.823Z,98626.84
2022-10-11T00:42:38.887Z,98630.75
2022-10-11T00:45:44.305Z,98640.69
2022-10-11T00:48:22.915Z,98628.81
2022-10-11T00:50:51.139Z,98640.53
2022-10-11T00:53:19.150Z,98638.69
2022-10-11T00:55:52.869Z,98645.09
2022-10-11T00:58:23.561Z,98638.09
2022-10-11T01:00:52.135Z,98643.09
2022-10-11T01:03:25.594Z,98639.25
2022-10-11T01:05:53.973Z,98640.25
2022-10-11T01:08:23.292Z,98635.44
2022-10-11T01:10:51.996Z,98640.03
2022-10-11T01:13:29.951Z,98646.25
2022-10-11T01:16:06.125Z,98644.19
2022-10-11T01:18:44.246Z,98646.00
2022-10-11T01:21:21.828Z,98641.44
2022-10-11T01:24:29.249Z,98636.50
2022-10-11T01:27:18.432Z,98638.69
2022-10-11T01:29:57.215Z,98637.00
2022-10-11T01:32:31.984Z,98637.22
2022-10-11T01:35:07.538Z,98635.72
2022-10-11T01:37:38.759Z,98636.00
2022-10-11T01:40:10.739Z,98637.66
2022-10-11T01:42:41.425Z,98630.75
2022-10-11T01:45:11.861Z,98637.25
2022-10-11T01:47:42.569Z,98637.16
2022-10-11T01:50:34.485Z,98637.25
2022-10-11T01:53:11.755Z,98632.84
2022-10-11T01:55:50.017Z,98644.88
2022-10-11T01:58:34.675Z,98644.53
2022-10-11T02:01:15.192Z,98641.44
2022-10-11T02:03:48.898Z,98643.84
2022-10-11T02:06:25.006Z,98646.03
2022-10-11T02:09:00.731Z,98645.34
2022-10-11T02:11:32.462Z,98638.31
2022-10-11T02:14:05.802Z,98656.25
2022-10-11T02:16:40.638Z,98657.31
2022-10-11T02:19:12.061Z,98646.56
2022-10-11T02:21:43.568Z,98637.63
2022-10-11T02:24:17.924Z,98637.88
2022-10-11T02:26:52.855Z,98648.16
2022-10-11T02:29:23.133Z,98650.22
2022-10-11T02:31:52.320Z,98646.94
2022-10-11T02:34:25.888Z,98648.19
2022-10-11T02:37:03.999Z,98645.94
2022-10-11T02:39:41.681Z,98653.72
2022-10-11T02:42:15.937Z,98646.78
2022-10-11T02:44:47.144Z,98653.50
2022-10-11T02:47:15.788Z,98650.09
2022-10-11T02:49:45.238Z,98654.56
2022-10-11T02:52:13.225Z,98655.38
2022-10-11T02:54:41.227Z,98654.22
2022-10-11T02:57:09.276Z,98661.50
2022-10-11T02:59:37.235Z,98661.06
2022-10-11T03:02:05.342Z,98664.81
2022-10-11T03:04:33.387Z,98660.16
2022-10-11T03:07:02.795Z,98658.56
2022-10-11T03:09:30.827Z,98665.47
2022-10-11T03:11:58.877Z,98667.31
2022-10-11T03:14:26.974Z,98664.13
2022-10-11T03:16:54.974Z,98668.78
2022-10-11T03:19:22.944Z,98660.94
2022-10-11T03:21:50.918Z,98668.66
2022-10-11T03:24:20.242Z,98677.41
2022-10-11T03:26:48.346Z,98679.22
2022-10-11T03:29:16.330Z,98668.53
2022-10-11T03:31:44.416Z,98670.88
2022-10-11T03:34:12.360Z,98681.50
2022-10-11T03:36:40.450Z,98670.22
2022-10-11T03:39:08.914Z,98674.66
2022-10-11T03:41:38.382Z,98677.78
2022-10-11T03:44:06.389Z,98678.16
2022-10-11T03:46:34.388Z,98688.41
2022-10-11T03:49:02.555Z,98678.91
2022-10-11T03:51:31.349Z,98679.72
2022-10-11T03:53:59.504Z,98682.91
2022-10-11T03:56:27.590Z,98675.34
2022-10-11T03:58:56.949Z,98684.75
2022-10-11T04:01:25.001Z,98681.91
2022-10-11T04:03:56.564Z,98672.69
2022-10-11T04:06:24.734Z,98680.06
2022-10-11T04:08:52.725Z,98686.00
2022-10-11T04:11:20.778Z,98695.31
2022-10-11T04:13:48.785Z,98693.88
2022-10-11T04:16:18.167Z,98689.97
2022-10-11T04:18:46.180Z,98697.50
2022-10-11T04:21:14.263Z,98695.38
2022-10-11T04:23:42.344Z,98697.41
2022-10-11T04:26:10.390Z,98698.81
2022-10-11T04:28:38.443Z,98697.22
2022-10-11T04:31:08.032Z,98698.16
2022-10-11T04:33:37.433Z,98710.38
2022-10-11T04:36:06.500Z,98703.72
2022-10-11T04:38:34.921Z,98694.88
2022-10-11T04:41:10.479Z,98710.06
2022-10-11T04:43:39.324Z,98701.88
2022-10-11T04:46:08.482Z,98714.81
2022-10-11T04:48:38.175Z,98707.56
2022-10-11T04:51:06.485Z,98703.06
2022-10-11T04:53:34.485Z,98711.47
2022-10-11T04:56:05.079Z,98709.09
2022-10-11T04:58:35.401Z,98707.84
2022-10-11T05:01:03.453Z,98724.44
2022-10-11T05:03:31.701Z,98720.97
2022-10-11T05:06:05.358Z,98721.56
2022-10-11T05:08:34.217Z,98715.31
2022-10-11T05:11:05.042Z,98726.94
2022-10-11T05:13:34.050Z,98715.06
2022-10-11T05:16:05.778Z,98733.78
2022-10-11T05:18:36.731Z,98726.13
2022-10-11T05:21:09.061Z,98731.88
2022-10-11T05:23:38.197Z,98738.78
2022-10-11T05:26:06.776Z,98740.69
2022-10-11T05:28:35.130Z,98739.25
2022-10-11T05:31:03.124Z,98754.13
2022-10-11T05:33:31.214Z,98746.22
2022-10-11T05:35:59.155Z,98755.44
2022-10-11T05:38:28.778Z,98750.91
2022-10-11T05:41:00.341Z,98756.94
2022-10-11T05:43:28.419Z,98758.84
2022-10-11T05:45:56.561Z,98777.47
2022-10-11T05:48:26.735Z,98772.84
2022-10-11T05:50:59.402Z,98756.41
2022-10-11T05:53:28.911Z,98775.09
2022-10-11T05:55:57.307Z,98780.69
2022-10-11T05:58:25.378Z,98784.22
2022-10-11T06:00:53.528Z,98785.41
2022-10-11T06:03:21.551Z,98798.28
2022-10-11T06:05:54.454Z,98792.03
2022-10-11T06:08:24.617Z,98789.69
2022-10-11T06:10:54.090Z,98790.13
2022-10-11T06:13:22.154Z,98798.06
2022-10-11T06:15:50.163Z,98804.94
2022-10-11T06:18:18.200Z,98809.72
2022-10-11T06:20:46.186Z,98813.47
2022-10-11T06:23:14.276Z,98810.00
2022-10-11T06:25:42.359Z,98805.41
2022-10-11T06:28:11.687Z,98815.56
2022-10-11T06:30:40.017Z,98810.03
2022-10-11T06:33:08.022Z,98813.72
2022-10-11T06:35:36.092Z,98825.38
2022-10-11T06:38:04.066Z,98806.88
2022-10-11T06:40:32.128Z,98811.31
2022-10-11T06:43:00.115Z,98807.56
2022-10-11T06:45:29.461Z,98816.75
2022-10-11T06:47:57.528Z,98826.38
2022-10-11T06:50:47.052Z,98830.59
2022-10-11T06:53:13.579Z,98840.84
2022-10-11T06:55:41.620Z,98845.19
2022-10-11T06:58:09.636Z,98843.47
2022-10-11T07:00:39.199Z,98831.31
2022-10-11T07:03:08.471Z,98849.13
2022-10-11T07:05:36.710Z,98842.97
2022-10-11T07:08:04.894Z,98849.69
2022-10-11T07:10:32.868Z,98856.03
2022-10-11T07:13:00.888Z,98853.50
2022-10-11T07:15:28.845Z,98855.53
2022-10-11T07:17:58.248Z,98867.84
2022-10-11T07:20:26.217Z,98868.44
2022-10-11T07:22:54.260Z,98870.69
2022-10-11T07:25:22.315Z,98886.50
2022-10-11T07:27:50.334Z,98881.56
2022-10-11T07:30:18.610Z,98883.06
2022-10-11T07:32:46.615Z,98881.03
2022-10-11T07:35:16.007Z,98892.50
2022-10-11T07:37:44.183Z,98892.50
2022-10-11T07:40:12.311Z,98880.56
2022-10-11T07:42:40.410Z,98881.81
2022-10-11T07:45:09.188Z,98877.66
2022-10-11T07:47:37.155Z,98884.44
2022-10-11T07:50:05.658Z,98885.22
2022-10-11T07:52:36.357Z,98895.94
2022-10-11T07:55:04.571Z,98908.28
2022-10-11T07:57:32.622Z,98896.28
2022-10-11T08:00:00.664Z,98894.84
2022-10-11T08:02:28.746Z,98891.28
2022-10-11T08:04:56.789Z,98899.53
2022-10-11T08:07:24.798Z,98900.53
2022-10-11T08:10:00.196Z,98904.16
2022-10-11T08:12:28.360Z,98902.56
2022-10-11T08:14:56.865Z,98907.56
2022-10-11T08:17:25.154Z,98915.13
2022-10-11T08:19:53.268Z,98918.59
2022-10-11T08:22:21.253Z,98920.78
2022-10-11T08:24:50.800Z,98923.59
2022-10-11T08:27:20.461Z,98929.25
2022-10-11T08:29:48.427Z,98929.47
2022-10-11T08:32:16.487Z,98931.97
2022-10-11T08:34:44.501Z,98930.88
2022-10-11T08:37:12.531Z,98931.38
2022-10-11T08:39:40.784Z,98925.72
2022-10-11T08:42:16.638Z,98930.53
2022-10-11T08:45:11.479Z,98924.69
2022-10-11T08:47:43.985Z,98932.47
2022-10-11T08:50:18.998Z,98930.16
2022-10-11T08:52:51.616Z,98935.22
2022-10-11T08:55:25.580Z,98946.84
2022-10-11T08:57:56.243Z,98940.78
2022-10-11T09:00:27.174Z,98946.44
2022-10-11T09:03:09.573Z,98947.19
2022-10-11T09:05:50.808Z,98946.25
2022-10-11T09:08:23.759Z,98933.03
2022-10-11T09:11:00.318Z,98930.22
2022-10-11T09:13:44.432Z,98933.84
2022-10-11T09:16:28.089Z,98918.94
2022-10-11T09:19:24.610Z,98938.03
2022-10-11T09:22:01.061Z,98943.16
2022-10-11T09:24:40.391Z,98929.25
2022-10-11T09:27:18.863Z,98933.63
2022-10-11T09:29:58.687Z,98930.84
2022-10-11T09:32:32.152Z,98947.66
2022-10-11T09:35:09.697Z,98952.78
2022-10-11T09:37:47.193Z,98952.56
2022-10-11T09:40:26.352Z,98947.00
2022-10-11T09:42:54.505Z,98942.91
2022-10-11T09:45:23.297Z,98941.16
2022-10-11T09:47:55.509Z,98932.56
2022-10-11T09:50:26.161Z,98937.72
2022-10-11T09:52:56.591Z,98935.13
2022-10-11T09:55:35.767Z,98929.63
2022-10-11T09:58:05.171Z,98926.03
2022-10-11T10:00:34.428Z,98939.28
2022-10-11T10:03:05.558Z,98938.16
2022-10-11T10:05:36.914Z,98942.09
2022-10-11T10:08:23.847Z,98947.63
2022-10-11T10:11:01.328Z,98951.66
2022-10-11T10:13:39.239Z,98949.25
2022-10-11T10:16:11.707Z,98947.63
2022-10-11T10:18:50.421Z,98947.19
2022-10-11T10:21:27.617Z,98952.66
2022-10-11T10:23:57.875Z,98946.72
2022-10-11T10:26:27.583Z,98949.47
2022-10-11T10:28:59.072Z,98950.50
2022-10-11T10:31:49.185Z,98945.91
2022-10-11T10:34:27.218Z,98958.34
2022-10-11T10:36:58.373Z,98963.53
2022-10-11T10:39:32.766Z,98958.88
2022-10-11T10:42:04.730Z,98956.06
2022-10-11T10:44:32.774Z,98960.84
2022-10-11T10:47:10.371Z,98957.78
2022-10-11T10:49:59.836Z,98955.09
2022-10-11T10:52:47.241Z,98958.94
2022-10-11T10:55:24.604Z,98956.63
2022-10-11T10:58:07.203Z,98964.47
2022-10-11T11:00:43.328Z,98964.72
2022-10-11T11:03:22.721Z,98967.25
2022-10-11T11:06:00.954Z,98956.09
2022-10-11T11:08:45.418Z,98959.16
2022-10-11T11:11:29.630Z,98959.16
2022-10-11T11:14:04.997Z,98957.31
2022-10-11T11:16:39.977Z,98950.41
2022-10-11T11:19:20.731Z,98957.38
2022-10-11T11:21:58.421Z,98958.50
2022-10-11T11:24:38.824Z,98976.88
2022-10-11T11:27:16.232Z,98971.38
2022-10-11T11:29:55.365Z,98960.41
2022-10-11T11:32:35.838Z,98962.44
2022-10-11T11:35:10.640Z,98969.34
2022-10-11T11:37:43.804Z,98957.09
2022-10-11T11:40:18.954Z,98967.34
2022-10-11T11:42:50.400Z,98973.28
2022-10-11T11:45:23.260Z,98973.59
2022-10-11T11:47:55.288Z,98971.78
2022-10-11T11:50:27.861Z,98980.09
2022-10-11T11:53:02.096Z,98968.28
2022-10-11T11:55:37.535Z,98974.28
2022-10-11T11:58:18.496Z,98971.72
2022-10-11T12:00:54.293Z,98971.06
2022-10-11T12:03:26.746Z,98987.28
2022-10-11T12:06:24.949Z,98973.31
2022-10-11T12:09:04.130Z,98980.13
2022-10-11T12:11:42.710Z,98977.78
2022-10-11T12:14:35.409Z,98961.41
2022-10-11T12:17:10.422Z,98980.41
2022-10-11T12:19:42.070Z,98993.00
2022-10-11T12:22:42.761Z,98991.16
2022-10-11T12:25:36.063Z,98976.28
2022-10-11T12:28:42.502Z,99001.72
2022-10-11T12:31:22.755Z,98993.53
2022-10-11T12:33:54.486Z,98986.69
2022-10-11T12:36:40.069Z,98995.50
2022-10-11T12:39:47.451Z,98982.63
2022-10-11T12:42:27.116Z,99000.41
2022-10-11T12:45:32.048Z,98992.16
2022-10-11T12:48:33.129Z,98995.94
2022-10-11T12:51:22.500Z,99011.03
2022-10-11T12:54:25.386Z,99003.25
2022-10-11T12:57:13.256Z,99022.63
2022-10-11T12:59:46.398Z,99011.06
2022-10-11T13:02:29.075Z,99010.41
2022-10-11T13:05:09.740Z,99016.50
2022-10-11T13:07:37.871Z,99028.69
2022-10-11T13:10:06.885Z,99014.97
2022-10-11T13:12:42.005Z,99043.41
2022-10-11T13:15:16.234Z,99025.53
2022-10-11T13:17:44.273Z,99025.88
2022-10-11T13:20:20.056Z,99037.66
2022-10-11T13:22:51.127Z,99033.84
2022-10-11T13:25:21.977Z,99035.38
2022-10-11T13:27:52.455Z,99027.22
2022-10-11T13:30:27.100Z,99025.94
2022-10-11T13:32:55.453Z,99034.34
2022-10-11T13:35:30.568Z,99026.38
2022-10-11T13:37:59.114Z,99040.97
2022-10-11T13:40:28.586Z,99034.97
2022-10-11T13:42:56.974Z,99027.22
2022-10-11T13:45:30.704Z,99032.22
2022-10-11T13:47:58.980Z,99050.81
2022-10-11T13:50:32.359Z,99028.31
2022-10-11T13:53:01.959Z,99040.66
2022-10-11T13:55:33.677Z,99036.03
2022-10-11T13:58:03.997Z,99035.34
2022-10-11T14:00:36.090Z,99039.34
2022-10-11T14:03:09.230Z,99041.25
2022-10-11T14:05:40.080Z,99037.88
2022-10-11T14:08:20.386Z,99037.72
2022-10-11T14:10:54.166Z,99033.16
2022-10-11T14:13:26.828Z,99030.66
2022-10-11T14:16:08.465Z,99025.41
2022-10-11T14:18:48.403Z,99024.00
2022-10-11T14:21:35.690Z,99022.03
2022-10-11T14:24:06.245Z,99026.44
2022-10-11T14:26:37.371Z,99020.19
2022-10-11T14:29:09.383Z,99019.72
2022-10-11T14:31:41.993Z,99019.81
2022-10-11T14:34:18.318Z,99020.47
2022-10-11T14:36:46.708Z,99025.28
2022-10-11T14:39:17.540Z,99024.00
2022-10-11T14:41:47.192Z,99022.50
2022-10-11T14:44:16.793Z,99027.53
2022-10-11T14:46:47.784Z,99024.25
2022-10-11T14:49:17.711Z,99028.13
2022-10-11T14:51:47.710Z,99040.69
2022-10-11T14:54:17.836Z,99038.91
2022-10-11T14:56:45.958Z,99041.91
2022-10-11T14:59:16.086Z,99031.72
2022-10-11T15:01:46.236Z,99032.56
2022-10-11T15:04:16.137Z,99031.19
2022-10-11T15:06:44.114Z,99035.13
2022-10-11T15:09:12.114Z,99033.59
2022-10-11T15:11:40.707Z,99037.38
2022-10-11T15:14:08.664Z,99035.66
2022-10-11T15:16:36.630Z,99034.72
2022-10-11T15:19:04.881Z,99030.66
2022-10-11T15:21:35.412Z,99041.88
2022-10-11T15:24:03.492Z,99036.63
2022-10-11T15:26:31.449Z,99042.53
2022-10-11T15:28:59.496Z,99043.84
2022-10-11T15:31:27.586Z,99043.19
2022-10-11T15:33:59.431Z,99052.88
2022-10-11T15:36:28.736Z,99055.06
2022-10-11T15:38:58.108Z,99058.50
2022-10-11T15:41:26.084Z,99057.38
2022-10-11T15:43:54.979Z,99065.03
2022-10-11T15:46:23.872Z,99059.72
2022-10-11T15:48:53.188Z,99071.31
2022-10-11T15:51:21.144Z,99060.38
2022-10-11T15:53:49.160Z,99073.34
2022-10-11T15:56:19.784Z,99069.81
2022-10-11T15:58:48.110Z,99081.91
2022-10-11T16:01:17.915Z,99078.03
2022-10-11T16:03:46.457Z,99080.97
2022-10-11T16:06:14.555Z,99095.59
2022-10-11T16:08:42.539Z,99082.13
2022-10-11T16:11:12.310Z,99089.34
2022-10-11T16:13:42.160Z,99093.97
2022-10-11T16:16:11.141Z,99097.09
2022-10-11T16:18:39.773Z,99099.97
2022-10-11T16:21:10.208Z,99101.25
2022-10-11T16:23:39.266Z,99103.38
2022-10-11T16:26:09.845Z,99107.38
2022-10-11T16:28:38.527Z,99113.63
2022-10-11T16:31:14.464Z,99112.75
2022-10-11T16:33:46.538Z,99115.69
2022-10-11T16:36:36.959Z,99109.69
2022-10-11T16:39:08.710Z,99118.75
2022-10-11T16:41:38.173Z,99125.53
2022-10-11T16:44:06.798Z,99126.19
2022-10-11T16:46:36.213Z,99116.19
2022-10-11T16:49:04.820Z,99122.88
2022-10-11T16:51:32.860Z,99129.56
2022-10-11T16:54:00.978Z,99134.41
2022-10-11T16:56:29.040Z,99138.34
2022-10-11T16:58:57.461Z,99143.16
2022-10-11T17:01:25.830Z,99143.16
2022-10-11T17:03:55.841Z,99141.59
2022-10-11T17:06:24.891Z,99139.97
2022-10-11T17:08:53.367Z,99146.28
2022-10-11T17:11:22.292Z,99144.03
2022-10-11T17:13:53.476Z,99141.56
2022-10-11T17:16:22.575Z,99141.44
2022-10-11T17:18:51.033Z,99144.22
2022-10-11T17:21:22.140Z,99141.97
2022-10-11T17:23:50.416Z,99141.97
2022-10-11T17:26:21.539Z,99149.31
2022-10-11T17:28:50.178Z,99144.31
2022-10-11T17:31:18.463Z,99139.88
2022-10-11T17:33:46.781Z,99148.41
2022-10-11T17:36:18.130Z,99149.66
2022-10-11T17:38:47.726Z,99153.91
2022-10-11T17:41:16.321Z,99158.75
2022-10-11T17:43:44.305Z,99154.94
2022-10-11T17:46:13.791Z,99147.00
2022-10-11T17:48:42.653Z,99152.78
2022-10-11T17:51:12.790Z,99150.19
2022-10-11T17:53:41.303Z,99167.06
2022-10-11T17:56:14.109Z,99168.78
2022-10-11T17:58:42.675Z,99165.03
2022-10-11T18:01:14.050Z,99163.66
2022-10-11T18:03:42.899Z,99175.50
2022-10-11T18:06:14.643Z,99178.91
2022-10-11T18:08:42.988Z,99180.78
2022-10-11T18:11:13.631Z,99175.59
2022-10-11T18:13:46.011Z,99167.59
2022-10-11T18:16:15.207Z,99178.16
2022-10-11T18:18:44.538Z,99175.75
2022-10-11T18:21:13.461Z,99179.28
2022-10-11T18:23:41.813Z,99182.25
2022-10-11T18:26:13.417Z,99177.56
2022-10-11T18:28:42.649Z,99182.56
2022-10-11T18:31:13.941Z,99189.41
2022-10-11T18:33:42.872Z,99183.41
2022-10-11T18:36:13.575Z,99184.56
2022-10-11T18:38:46.419Z,99182.03
2022-10-11T18:41:18.247Z,99185.34
2022-10-11T18:43:50.171Z,99188.19
2022-10-11T18:46:18.696Z,99191.84
2022-10-11T18:48:48.341Z,99180.03
2022-10-11T18:51:18.728Z,99195.44
2022-10-11T18:53:46.990Z,99192.38
2022-10-11T18:56:18.091Z,99193.97
2022-10-11T18:58:46.634Z,99195.13
2022-10-11T19:01:17.025Z,99194.81
2022-10-11T19:03:47.047Z,99187.75
2022-10-11T19:06:18.244Z,99196.56
2022-10-11T19:08:47.194Z,99183.41
2022-10-11T19:11:17.680Z,99188.44
2022-10-11T19:13:45.809Z,99192.72
2022-10-11T19:16:15.898Z,99191.97
2022-10-11T19:18:44.937Z,99199.22
2022-10-11T19:21:14.606Z,99203.78
2022-10-11T19:23:44.437Z,99198.50
2022-10-11T19:26:16.734Z,99195.25
2022-10-11T19:28:45.721Z,99203.16
2022-10-11T19:31:16.955Z,99186.72
2022-10-11T19:33:48.360Z,99204.16
2022-10-11T19:36:16.953Z,99202.16
2022-10-11T19:38:46.706Z,99203.75
2022-10-11T19:41:17.798Z,99200.69
2022-10-11T19:43:46.082Z,99201.16
2022-10-11T19:46:27.375Z,99199.97
2022-10-11T19:49:04.096Z,99210.44
2022-10-11T19:51:34.940Z,99209.03
2022-10-11T19:54:04.567Z,99216.13
2022-10-11T19:56:35.025Z,99205.63
2022-10-11T19:59:03.658Z,99214.84
2022-10-11T20:01:32.609Z,99209.47
2022-10-11T20:04:02.313Z,99212.72
2022-10-11T20:06:34.628Z,99208.41
2022-10-11T20:09:28.005Z,99211.78
2022-10-11T20:11:55.717Z,99208.25
2022-10-11T20:14:23.911Z,99217.50
2022-10-11T20:16:52.460Z,99218.25
2022-10-11T20:19:26.250Z,99213.16
2022-10-11T20:21:57.483Z,99205.97
2022-10-11T20:24:27.497Z,99217.66
2022-10-11T20:26:57.132Z,99218.59
2022-10-11T20:29:25.339Z,99226.59
2022-10-11T20:31:53.520Z,99230.94
2022-10-11T20:34:21.464Z,99227.72
2022-10-11T20:36:49.601Z,99225.13
2022-10-11T20:39:18.001Z,99225.13
2022-10-11T20:41:46.284Z,99228.19
2022-10-11T20:44:16.239Z,99232.97
2022-10-11T20:46:44.233Z,99224.56
2022-10-11T20:49:14.672Z,99223.34
2022-10-11T20:51:43.895Z,99227.81
2022-10-11T20:54:12.338Z,99232.59
2022-10-11T20:56:40.910Z,99227.06
2022-10-11T20:59:09.309Z,99235.06
2022-10-11T21:01:41.504Z,99234.59
2022-10-11T21:04:15.323Z,99227.81
2022-10-11T21:06:43.376Z,99232.09
2022-10-11T21:09:14.070Z,99234.13
2022-10-11T21:11:44.514Z,99222.59
2022-10-11T21:14:12.514Z,99223.22
2022-10-11T21:16:42.076Z,99232.88
2022-10-11T21:19:14.087Z,99227.22
2022-10-11T21:21:42.621Z,99231.66
2022-10-11T21:24:10.691Z,99237.56
2022-10-11T21:26:38.814Z,99242.19
2022-10-11T21:29:07.589Z,99235.97
2022-10-11T21:31:35.744Z,99235.13
2022-10-11T21:34:07.403Z,99239.50
2022-10-11T21:36:35.560Z,99244.63
2022-10-11T21:39:03.937Z,99242.78
2022-10-11T21:41:33.957Z,99242.38
2022-10-11T21:44:02.249Z,99241.09
2022-10-11T21:46:54.454Z,99238.44
2022-10-11T21:49:21.531Z,99245.91
2022-10-11T21:51:49.517Z,99242.50
2022-10-11T21:54:17.791Z,99236.81
2022-10-11T21:56:45.827Z,99242.94
2022-10-11T21:59:13.931Z,99246.81
2022-10-11T22:01:42.805Z,99245.53
2022-10-11T22:04:12.057Z,99246.88
2022-10-11T22:06:41.448Z,99246.28
2022-10-11T22:09:10.020Z,99242.13
2022-10-11T22:11:38.895Z,99244.44
2022-10-11T22:14:07.055Z,99238.75
2022-10-11T22:16:35.819Z,99246.47
2022-10-11T22:19:04.196Z,99234.72
2022-10-11T22:21:32.641Z,99235.00
2022-10-11T22:24:02.074Z,99238.19
2022-10-11T22:26:31.833Z,99245.88
2022-10-11T22:29:00.273Z,99238.28
2022-10-11T22:31:28.871Z,99244.25
2022-10-11T22:33:57.988Z,99245.84
2022-10-11T22:36:26.475Z,99248.53
2022-10-11T22:38:55.178Z,99244.34
2022-10-11T22:41:24.857Z,99247.59
2022-10-11T22:43:53.203Z,99238.72
2022-10-11T22:46:21.163Z,99243.63
2022-10-11T22:48:49.123Z,99247.94
2022-10-11T22:51:17.164Z,99241.03
2022-10-11T22:53:45.179Z,99237.00
2022-10-11T22:56:13.101Z,99243.25
2022-10-11T22:58:42.434Z,99241.81
2022-10-11T23:01:11.784Z,99237.44
2022-10-11T23:03:40.072Z,99243.44
2022-10-11T23:06:08.334Z,99237.84
2022-10-11T23:08:36.257Z,99239.56
2022-10-11T23:11:05.991Z,99230.25
2022-10-11T23:13:34.126Z,99232.16
2022-10-11T23:16:08.304Z,99241.81
2022-10-11T23:18:36.695Z,99238.03
2022-10-11T23:21:05.074Z,99241.97
2022-10-11T23:23:33.415Z,99236.09
2022-10-11T23:26:02.789Z,99241.97
2022-10-11T23:28:30.980Z,99240.81
2022-10-11T23:30:59.095Z,99236.09
2022-10-11T23:33:29.173Z,99232.72
2022-10-11T23:35:57.212Z,99241.16
2022-10-11T23:38:25.187Z,99239.47
2022-10-11T23:40:53.160Z,99241.56
2022-10-11T23:43:21.148Z,99245.16
2022-10-11T23:45:49.162Z,99239.69
2022-10-11T23:48:17.251Z,99245.06
2022-10-11T23:50:46.823Z,99243.84
2022-10-11T23:53:14.905Z,99248.13
2022-10-11T23:55:43.643Z,99248.09
2022-10-11T23:58:11.684Z,99242.78
